sensor_id;sensor_type;location;lat;lon;timestamp;P1;durP1;ratioP1;P2;durP2;ratioP2
33184;SDS011;19550;42.872;25.494;2023-05-07T00:00:35;12.63;;;8.85;;
33184;SDS011;19550;42.872;25.494;2023-05-07T00:03:03;14.63;;;10.05;;
33184;SDS011;19550;42.872;25.494;2023-05-07T00:05:30;13.18;;;9.32;;
33184;SDS011;19550;42.872;25.494;2023-05-07T00:07:57;11.73;;;8.70;;
33184;SDS011;19550;42.872;25.494;2023-05-07T00:10:24;13.57;;;9.65;;
33184;SDS011;19550;42.872;25.494;2023-05-07T00:12:51;19.70;;;10.93;;
33184;SDS011;19550;42.872;25.494;2023-05-07T00:15:18;22.40;;;10.57;;
33184;SDS011;19550;42.872;25.494;2023-05-07T00:17:44;19.17;;;10.52;;
33184;SDS011;19550;42.872;25.494;2023-05-07T00:20:13;31.05;;;10.70;;
33184;SDS011;19550;42.872;25.494;2023-05-07T00:22:39;15.00;;;9.52;;
33184;SDS011;19550;42.872;25.494;2023-05-07T00:25:06;14.02;;;9.20;;
33184;SDS011;19550;42.872;25.494;2023-05-07T00:27:35;45.28;;;11.60;;
33184;SDS011;19550;42.872;25.494;2023-05-07T00:30:02;12.18;;;8.70;;
33184;SDS011;19550;42.872;25.494;2023-05-07T00:32:29;16.80;;;10.10;;
33184;SDS011;19550;42.872;25.494;2023-05-07T00:34:56;18.85;;;9.98;;
33184;SDS011;19550;42.872;25.494;2023-05-07T00:37:24;12.93;;;9.52;;
33184;SDS011;19550;42.872;25.494;2023-05-07T00:39:50;13.48;;;9.07;;
33184;SDS011;19550;42.872;25.494;2023-05-07T00:42:17;11.50;;;8.55;;
33184;SDS011;19550;42.872;25.494;2023-05-07T00:44:44;11.13;;;8.90;;
33184;SDS011;19550;42.872;25.494;2023-05-07T00:47:11;12.18;;;8.65;;
33184;SDS011;19550;42.872;25.494;2023-05-07T00:49:39;11.70;;;9.05;;
33184;SDS011;19550;42.872;25.494;2023-05-07T00:52:09;11.73;;;8.40;;
33184;SDS011;19550;42.872;25.494;2023-05-07T00:54:38;12.45;;;8.77;;
33184;SDS011;19550;42.872;25.494;2023-05-07T00:57:07;13.73;;;8.50;;
33184;SDS011;19550;42.872;25.494;2023-05-07T00:59:36;17.65;;;8.77;;
33184;SDS011;19550;42.872;25.494;2023-05-07T01:02:03;13.43;;;8.60;;
33184;SDS011;19550;42.872;25.494;2023-05-07T01:04:30;12.98;;;8.30;;
33184;SDS011;19550;42.872;25.494;2023-05-07T01:06:57;9.98;;;8.52;;
33184;SDS011;19550;42.872;25.494;2023-05-07T01:09:25;16.20;;;9.27;;
33184;SDS011;19550;42.872;25.494;2023-05-07T01:11:55;14.23;;;9.38;;
33184;SDS011;19550;42.872;25.494;2023-05-07T01:14:23;11.35;;;9.23;;
33184;SDS011;19550;42.872;25.494;2023-05-07T01:16:51;16.63;;;9.70;;
33184;SDS011;19550;42.872;25.494;2023-05-07T01:19:18;16.73;;;9.13;;
33184;SDS011;19550;42.872;25.494;2023-05-07T01:21:46;19.08;;;8.90;;
33184;SDS011;19550;42.872;25.494;2023-05-07T01:24:16;12.60;;;8.20;;
33184;SDS011;19550;42.872;25.494;2023-05-07T01:26:44;14.23;;;8.23;;
33184;SDS011;19550;42.872;25.494;2023-05-07T01:29:11;11.60;;;8.65;;
33184;SDS011;19550;42.872;25.494;2023-05-07T01:31:37;10.50;;;7.63;;
33184;SDS011;19550;42.872;25.494;2023-05-07T01:34:07;13.93;;;7.75;;
33184;SDS011;19550;42.872;25.494;2023-05-07T01:36:36;10.45;;;7.45;;
33184;SDS011;19550;42.872;25.494;2023-05-07T01:39:05;10.93;;;8.25;;
33184;SDS011;19550;42.872;25.494;2023-05-07T01:41:34;13.38;;;8.25;;
33184;SDS011;19550;42.872;25.494;2023-05-07T01:44:01;11.43;;;7.97;;
33184;SDS011;19550;42.872;25.494;2023-05-07T01:46:29;11.60;;;8.18;;
33184;SDS011;19550;42.872;25.494;2023-05-07T01:48:57;13.07;;;7.60;;
33184;SDS011;19550;42.872;25.494;2023-05-07T01:51:25;9.27;;;6.50;;
33184;SDS011;19550;42.872;25.494;2023-05-07T01:53:52;11.95;;;7.40;;
33184;SDS011;19550;42.872;25.494;2023-05-07T01:56:19;9.60;;;7.75;;
33184;SDS011;19550;42.872;25.494;2023-05-07T01:58:47;11.88;;;8.00;;
33184;SDS011;19550;42.872;25.494;2023-05-07T02:01:16;15.55;;;8.52;;
33184;SDS011;19550;42.872;25.494;2023-05-07T02:03:43;10.00;;;7.60;;
33184;SDS011;19550;42.872;25.494;2023-05-07T02:06:10;13.85;;;7.57;;
33184;SDS011;19550;42.872;25.494;2023-05-07T02:08:36;11.40;;;7.50;;
33184;SDS011;19550;42.872;25.494;2023-05-07T02:11:03;17.00;;;8.88;;
33184;SDS011;19550;42.872;25.494;2023-05-07T02:13:31;15.40;;;8.70;;
33184;SDS011;19550;42.872;25.494;2023-05-07T02:16:00;11.68;;;8.30;;
33184;SDS011;19550;42.872;25.494;2023-05-07T02:18:27;10.32;;;7.97;;
33184;SDS011;19550;42.872;25.494;2023-05-07T02:20:54;12.13;;;7.68;;
33184;SDS011;19550;42.872;25.494;2023-05-07T02:23:21;11.82;;;7.95;;
33184;SDS011;19550;42.872;25.494;2023-05-07T02:25:48;10.80;;;7.25;;
33184;SDS011;19550;42.872;25.494;2023-05-07T02:28:14;14.57;;;7.65;;
33184;SDS011;19550;42.872;25.494;2023-05-07T02:30:41;9.93;;;7.20;;
33184;SDS011;19550;42.872;25.494;2023-05-07T02:33:09;10.73;;;6.93;;
33184;SDS011;19550;42.872;25.494;2023-05-07T02:35:37;13.00;;;6.97;;
33184;SDS011;19550;42.872;25.494;2023-05-07T02:38:04;8.77;;;6.20;;
33184;SDS011;19550;42.872;25.494;2023-05-07T02:40:31;8.75;;;6.82;;
33184;SDS011;19550;42.872;25.494;2023-05-07T02:43:03;11.70;;;6.80;;
33184;SDS011;19550;42.872;25.494;2023-05-07T02:45:30;11.82;;;7.38;;
33184;SDS011;19550;42.872;25.494;2023-05-07T02:47:57;23.23;;;8.02;;
33184;SDS011;19550;42.872;25.494;2023-05-07T02:50:25;10.05;;;7.43;;
33184;SDS011;19550;42.872;25.494;2023-05-07T02:52:52;10.48;;;7.00;;
33184;SDS011;19550;42.872;25.494;2023-05-07T02:55:19;12.32;;;7.20;;
33184;SDS011;19550;42.872;25.494;2023-05-07T02:57:46;18.50;;;7.40;;
33184;SDS011;19550;42.872;25.494;2023-05-07T03:00:13;35.95;;;8.02;;
33184;SDS011;19550;42.872;25.494;2023-05-07T03:02:41;17.35;;;8.25;;
33184;SDS011;19550;42.872;25.494;2023-05-07T03:05:08;10.02;;;7.38;;
33184;SDS011;19550;42.872;25.494;2023-05-07T03:07:37;13.38;;;7.45;;
33184;SDS011;19550;42.872;25.494;2023-05-07T03:10:04;13.02;;;7.07;;
33184;SDS011;19550;42.872;25.494;2023-05-07T03:12:32;32.28;;;7.82;;
33184;SDS011;19550;42.872;25.494;2023-05-07T03:14:58;12.27;;;8.23;;
33184;SDS011;19550;42.872;25.494;2023-05-07T03:17:25;10.60;;;7.90;;
33184;SDS011;19550;42.872;25.494;2023-05-07T03:19:52;10.48;;;7.38;;
33184;SDS011;19550;42.872;25.494;2023-05-07T03:22:19;10.85;;;6.95;;
33184;SDS011;19550;42.872;25.494;2023-05-07T03:24:47;18.58;;;6.88;;
33184;SDS011;19550;42.872;25.494;2023-05-07T03:27:14;34.35;;;7.40;;
33184;SDS011;19550;42.872;25.494;2023-05-07T03:29:41;20.88;;;7.60;;
33184;SDS011;19550;42.872;25.494;2023-05-07T03:32:07;31.90;;;7.80;;
33184;SDS011;19550;42.872;25.494;2023-05-07T03:34:34;10.85;;;7.53;;
33184;SDS011;19550;42.872;25.494;2023-05-07T03:37:01;11.23;;;7.40;;
33184;SDS011;19550;42.872;25.494;2023-05-07T03:39:28;10.15;;;7.10;;
33184;SDS011;19550;42.872;25.494;2023-05-07T03:41:57;7.80;;;6.45;;
33184;SDS011;19550;42.872;25.494;2023-05-07T03:44:24;8.20;;;7.23;;
33184;SDS011;19550;42.872;25.494;2023-05-07T03:46:51;11.70;;;8.65;;
33184;SDS011;19550;42.872;25.494;2023-05-07T03:49:18;14.60;;;9.93;;
33184;SDS011;19550;42.872;25.494;2023-05-07T03:51:44;28.52;;;17.50;;
33184;SDS011;19550;42.872;25.494;2023-05-07T03:54:11;40.65;;;23.90;;
33184;SDS011;19550;42.872;25.494;2023-05-07T03:56:38;45.47;;;28.77;;
33184;SDS011;19550;42.872;25.494;2023-05-07T03:59:06;39.92;;;30.58;;
33184;SDS011;19550;42.872;25.494;2023-05-07T04:01:33;34.38;;;23.65;;
33184;SDS011;19550;42.872;25.494;2023-05-07T04:04:00;35.15;;;25.15;;
33184;SDS011;19550;42.872;25.494;2023-05-07T04:06:28;41.88;;;30.33;;
33184;SDS011;19550;42.872;25.494;2023-05-07T04:08:55;42.78;;;29.90;;
33184;SDS011;19550;42.872;25.494;2023-05-07T04:11:21;39.47;;;25.98;;
33184;SDS011;19550;42.872;25.494;2023-05-07T04:13:48;34.00;;;21.45;;
33184;SDS011;19550;42.872;25.494;2023-05-07T04:16:16;30.85;;;19.00;;
33184;SDS011;19550;42.872;25.494;2023-05-07T04:18:43;19.88;;;13.85;;
33184;SDS011;19550;42.872;25.494;2023-05-07T04:21:13;13.45;;;9.70;;
33184;SDS011;19550;42.872;25.494;2023-05-07T04:23:40;14.70;;;9.15;;
33184;SDS011;19550;42.872;25.494;2023-05-07T04:26:07;15.27;;;9.05;;
33184;SDS011;19550;42.872;25.494;2023-05-07T04:28:34;13.90;;;8.45;;
33184;SDS011;19550;42.872;25.494;2023-05-07T04:31:01;11.40;;;7.70;;
33184;SDS011;19550;42.872;25.494;2023-05-07T04:33:29;15.65;;;8.07;;
33184;SDS011;19550;42.872;25.494;2023-05-07T04:35:56;12.50;;;8.27;;
33184;SDS011;19550;42.872;25.494;2023-05-07T04:38:27;16.02;;;10.00;;
33184;SDS011;19550;42.872;25.494;2023-05-07T04:40:54;24.00;;;13.88;;
33184;SDS011;19550;42.872;25.494;2023-05-07T04:43:21;17.40;;;13.02;;
33184;SDS011;19550;42.872;25.494;2023-05-07T04:45:49;45.53;;;29.13;;
33184;SDS011;19550;42.872;25.494;2023-05-07T04:48:16;28.55;;;19.38;;
33184;SDS011;19550;42.872;25.494;2023-05-07T04:50:46;17.25;;;12.07;;
33184;SDS011;19550;42.872;25.494;2023-05-07T04:53:13;14.00;;;10.05;;
33184;SDS011;19550;42.872;25.494;2023-05-07T04:55:40;18.30;;;10.68;;
33184;SDS011;19550;42.872;25.494;2023-05-07T04:58:07;14.80;;;9.63;;
33184;SDS011;19550;42.872;25.494;2023-05-07T05:00:34;13.48;;;9.10;;
33184;SDS011;19550;42.872;25.494;2023-05-07T05:03:01;14.32;;;9.52;;
33184;SDS011;19550;42.872;25.494;2023-05-07T05:05:27;13.23;;;8.88;;
33184;SDS011;19550;42.872;25.494;2023-05-07T05:07:56;15.73;;;9.00;;
33184;SDS011;19550;42.872;25.494;2023-05-07T05:10:22;11.75;;;7.88;;
33184;SDS011;19550;42.872;25.494;2023-05-07T05:12:49;13.43;;;8.18;;
33184;SDS011;19550;42.872;25.494;2023-05-07T05:15:16;9.98;;;7.38;;
33184;SDS011;19550;42.872;25.494;2023-05-07T05:17:43;14.73;;;7.35;;
33184;SDS011;19550;42.872;25.494;2023-05-07T05:20:10;8.85;;;7.05;;
33184;SDS011;19550;42.872;25.494;2023-05-07T05:22:37;12.32;;;8.50;;
33184;SDS011;19550;42.872;25.494;2023-05-07T05:25:06;16.17;;;10.85;;
33184;SDS011;19550;42.872;25.494;2023-05-07T05:27:33;17.70;;;10.70;;
33184;SDS011;19550;42.872;25.494;2023-05-07T05:30:00;17.58;;;9.95;;
33184;SDS011;19550;42.872;25.494;2023-05-07T05:32:27;10.68;;;7.95;;
33184;SDS011;19550;42.872;25.494;2023-05-07T05:34:54;10.63;;;7.70;;
33184;SDS011;19550;42.872;25.494;2023-05-07T05:37:21;10.65;;;7.22;;
33184;SDS011;19550;42.872;25.494;2023-05-07T05:39:48;11.15;;;7.43;;
33184;SDS011;19550;42.872;25.494;2023-05-07T05:42:16;12.15;;;7.43;;
33184;SDS011;19550;42.872;25.494;2023-05-07T05:44:43;15.40;;;8.18;;
33184;SDS011;19550;42.872;25.494;2023-05-07T05:47:10;11.73;;;6.93;;
33184;SDS011;19550;42.872;25.494;2023-05-07T05:49:37;11.25;;;7.68;;
33184;SDS011;19550;42.872;25.494;2023-05-07T05:52:04;10.88;;;7.38;;
33184;SDS011;19550;42.872;25.494;2023-05-07T05:54:30;13.38;;;8.10;;
33184;SDS011;19550;42.872;25.494;2023-05-07T05:56:57;12.85;;;8.13;;
33184;SDS011;19550;42.872;25.494;2023-05-07T05:59:25;13.93;;;7.95;;
33184;SDS011;19550;42.872;25.494;2023-05-07T06:01:52;11.07;;;7.68;;
33184;SDS011;19550;42.872;25.494;2023-05-07T06:04:19;12.63;;;7.82;;
33184;SDS011;19550;42.872;25.494;2023-05-07T06:06:46;15.48;;;7.18;;
33184;SDS011;19550;42.872;25.494;2023-05-07T06:09:13;12.82;;;6.65;;
33184;SDS011;19550;42.872;25.494;2023-05-07T06:11:39;9.02;;;6.68;;
33184;SDS011;19550;42.872;25.494;2023-05-07T06:14:06;8.70;;;6.22;;
33184;SDS011;19550;42.872;25.494;2023-05-07T06:16:34;10.00;;;6.15;;
33184;SDS011;19550;42.872;25.494;2023-05-07T06:19:03;13.05;;;5.82;;
33184;SDS011;19550;42.872;25.494;2023-05-07T06:21:29;8.90;;;5.85;;
33184;SDS011;19550;42.872;25.494;2023-05-07T06:23:56;14.68;;;6.07;;
33184;SDS011;19550;42.872;25.494;2023-05-07T06:26:23;9.30;;;6.13;;
33184;SDS011;19550;42.872;25.494;2023-05-07T06:28:50;8.15;;;3.22;;
33184;SDS011;19550;42.872;25.494;2023-05-07T06:31:18;8.00;;;2.75;;
33184;SDS011;19550;42.872;25.494;2023-05-07T06:33:48;5.53;;;2.28;;
33184;SDS011;19550;42.872;25.494;2023-05-07T06:36:15;3.33;;;2.40;;
33184;SDS011;19550;42.872;25.494;2023-05-07T06:38:42;5.13;;;2.38;;
33184;SDS011;19550;42.872;25.494;2023-05-07T06:41:09;6.25;;;2.40;;
33184;SDS011;19550;42.872;25.494;2023-05-07T06:43:35;12.75;;;5.82;;
33184;SDS011;19550;42.872;25.494;2023-05-07T06:46:02;8.80;;;3.40;;
33184;SDS011;19550;42.872;25.494;2023-05-07T06:48:30;7.03;;;2.67;;
33184;SDS011;19550;42.872;25.494;2023-05-07T06:50:58;6.28;;;2.80;;
33184;SDS011;19550;42.872;25.494;2023-05-07T06:53:25;4.93;;;2.92;;
33184;SDS011;19550;42.872;25.494;2023-05-07T06:55:53;7.45;;;4.85;;
33184;SDS011;19550;42.872;25.494;2023-05-07T06:58:20;5.95;;;2.42;;
33184;SDS011;19550;42.872;25.494;2023-05-07T07:00:47;3.65;;;1.98;;
33184;SDS011;19550;42.872;25.494;2023-05-07T07:03:13;8.35;;;2.38;;
33184;SDS011;19550;42.872;25.494;2023-05-07T07:05:48;4.20;;;2.70;;
33184;SDS011;19550;42.872;25.494;2023-05-07T07:08:20;5.68;;;4.22;;
33184;SDS011;19550;42.872;25.494;2023-05-07T07:10:48;11.25;;;3.45;;
33184;SDS011;19550;42.872;25.494;2023-05-07T07:13:15;2.55;;;2.03;;
33184;SDS011;19550;42.872;25.494;2023-05-07T07:15:44;4.18;;;2.83;;
33184;SDS011;19550;42.872;25.494;2023-05-07T07:18:11;3.55;;;1.73;;
33184;SDS011;19550;42.872;25.494;2023-05-07T07:20:38;7.60;;;2.45;;
33184;SDS011;19550;42.872;25.494;2023-05-07T07:23:05;3.75;;;2.22;;
33184;SDS011;19550;42.872;25.494;2023-05-07T07:25:33;4.88;;;2.00;;
33184;SDS011;19550;42.872;25.494;2023-05-07T07:28:00;4.57;;;1.80;;
33184;SDS011;19550;42.872;25.494;2023-05-07T07:30:27;6.38;;;2.08;;
33184;SDS011;19550;42.872;25.494;2023-05-07T07:32:54;4.18;;;1.98;;
33184;SDS011;19550;42.872;25.494;2023-05-07T07:35:29;7.18;;;2.08;;
33184;SDS011;19550;42.872;25.494;2023-05-07T07:38:00;7.50;;;1.80;;
33184;SDS011;19550;42.872;25.494;2023-05-07T07:40:27;4.25;;;1.70;;
33184;SDS011;19550;42.872;25.494;2023-05-07T07:42:56;6.88;;;1.75;;
33184;SDS011;19550;42.872;25.494;2023-05-07T07:45:24;6.05;;;1.88;;
33184;SDS011;19550;42.872;25.494;2023-05-07T07:47:50;3.22;;;2.33;;
33184;SDS011;19550;42.872;25.494;2023-05-07T07:50:17;5.15;;;1.80;;
33184;SDS011;19550;42.872;25.494;2023-05-07T07:52:44;7.05;;;2.58;;
33184;SDS011;19550;42.872;25.494;2023-05-07T07:55:11;3.85;;;2.03;;
33184;SDS011;19550;42.872;25.494;2023-05-07T07:57:39;3.13;;;1.95;;
33184;SDS011;19550;42.872;25.494;2023-05-07T08:00:07;6.32;;;2.13;;
33184;SDS011;19550;42.872;25.494;2023-05-07T08:02:35;2.45;;;1.63;;
33184;SDS011;19550;42.872;25.494;2023-05-07T08:05:01;3.45;;;2.08;;
33184;SDS011;19550;42.872;25.494;2023-05-07T08:07:29;6.85;;;2.55;;
33184;SDS011;19550;42.872;25.494;2023-05-07T08:09:55;9.73;;;2.65;;
33184;SDS011;19550;42.872;25.494;2023-05-07T08:12:22;4.78;;;2.28;;
33184;SDS011;19550;42.872;25.494;2023-05-07T08:14:49;9.50;;;3.53;;
33184;SDS011;19550;42.872;25.494;2023-05-07T08:17:17;4.20;;;2.75;;
33184;SDS011;19550;42.872;25.494;2023-05-07T08:19:47;5.13;;;2.95;;
33184;SDS011;19550;42.872;25.494;2023-05-07T08:22:13;5.70;;;2.10;;
33184;SDS011;19550;42.872;25.494;2023-05-07T08:24:40;4.35;;;2.22;;
33184;SDS011;19550;42.872;25.494;2023-05-07T08:27:07;6.32;;;2.15;;
33184;SDS011;19550;42.872;25.494;2023-05-07T08:29:34;9.10;;;3.45;;
33184;SDS011;19550;42.872;25.494;2023-05-07T08:32:01;2.63;;;1.85;;
33184;SDS011;19550;42.872;25.494;2023-05-07T08:34:29;3.13;;;2.10;;
33184;SDS011;19550;42.872;25.494;2023-05-07T08:36:56;5.45;;;2.42;;
33184;SDS011;19550;42.872;25.494;2023-05-07T08:39:22;3.95;;;2.15;;
33184;SDS011;19550;42.872;25.494;2023-05-07T08:41:49;3.90;;;2.35;;
33184;SDS011;19550;42.872;25.494;2023-05-07T08:44:21;3.72;;;2.30;;
33184;SDS011;19550;42.872;25.494;2023-05-07T08:46:49;5.53;;;2.55;;
33184;SDS011;19550;42.872;25.494;2023-05-07T08:51:47;10.55;;;5.75;;
33184;SDS011;19550;42.872;25.494;2023-05-07T08:54:15;5.13;;;2.90;;
33184;SDS011;19550;42.872;25.494;2023-05-07T08:56:43;4.63;;;2.30;;
33184;SDS011;19550;42.872;25.494;2023-05-07T08:59:09;4.40;;;3.63;;
33184;SDS011;19550;42.872;25.494;2023-05-07T09:01:37;3.75;;;2.53;;
33184;SDS011;19550;42.872;25.494;2023-05-07T09:04:04;4.82;;;2.70;;
33184;SDS011;19550;42.872;25.494;2023-05-07T09:06:31;10.25;;;3.10;;
33184;SDS011;19550;42.872;25.494;2023-05-07T09:09:00;4.57;;;2.65;;
33184;SDS011;19550;42.872;25.494;2023-05-07T09:11:28;7.50;;;2.75;;
33184;SDS011;19550;42.872;25.494;2023-05-07T09:13:55;2.10;;;1.90;;
33184;SDS011;19550;42.872;25.494;2023-05-07T09:16:23;5.90;;;3.10;;
33184;SDS011;19550;42.872;25.494;2023-05-07T09:18:50;3.13;;;2.35;;
33184;SDS011;19550;42.872;25.494;2023-05-07T09:21:18;3.65;;;2.65;;
33184;SDS011;19550;42.872;25.494;2023-05-07T09:23:47;3.60;;;2.10;;
33184;SDS011;19550;42.872;25.494;2023-05-07T09:26:16;3.25;;;2.22;;
33184;SDS011;19550;42.872;25.494;2023-05-07T09:28:43;5.75;;;2.10;;
33184;SDS011;19550;42.872;25.494;2023-05-07T09:31:11;2.47;;;2.00;;
33184;SDS011;19550;42.872;25.494;2023-05-07T09:33:38;6.72;;;2.50;;
33184;SDS011;19550;42.872;25.494;2023-05-07T09:36:06;4.40;;;2.30;;
33184;SDS011;19550;42.872;25.494;2023-05-07T09:38:34;5.78;;;3.05;;
33184;SDS011;19550;42.872;25.494;2023-05-07T09:41:02;4.72;;;2.70;;
33184;SDS011;19550;42.872;25.494;2023-05-07T09:43:35;4.57;;;2.30;;
33184;SDS011;19550;42.872;25.494;2023-05-07T09:46:03;4.72;;;2.42;;
33184;SDS011;19550;42.872;25.494;2023-05-07T09:48:35;3.75;;;2.40;;
33184;SDS011;19550;42.872;25.494;2023-05-07T09:51:06;4.55;;;2.35;;
33184;SDS011;19550;42.872;25.494;2023-05-07T09:53:39;4.00;;;2.65;;
33184;SDS011;19550;42.872;25.494;2023-05-07T09:56:07;6.38;;;2.75;;
33184;SDS011;19550;42.872;25.494;2023-05-07T09:58:35;4.55;;;2.55;;
33184;SDS011;19550;42.872;25.494;2023-05-07T10:01:04;4.45;;;2.55;;
33184;SDS011;19550;42.872;25.494;2023-05-07T10:03:32;2.95;;;2.40;;
33184;SDS011;19550;42.872;25.494;2023-05-07T10:08:30;6.93;;;2.67;;
33184;SDS011;19550;42.872;25.494;2023-05-07T10:10:57;3.78;;;2.45;;
33184;SDS011;19550;42.872;25.494;2023-05-07T10:13:23;7.30;;;3.03;;
33184;SDS011;19550;42.872;25.494;2023-05-07T10:15:52;8.32;;;3.58;;
33184;SDS011;19550;42.872;25.494;2023-05-07T10:18:19;4.63;;;3.20;;
33184;SDS011;19550;42.872;25.494;2023-05-07T10:23:18;4.18;;;2.65;;
33184;SDS011;19550;42.872;25.494;2023-05-07T10:25:49;5.00;;;2.95;;
33184;SDS011;19550;42.872;25.494;2023-05-07T10:28:16;9.48;;;4.20;;
33184;SDS011;19550;42.872;25.494;2023-05-07T10:30:48;5.38;;;3.55;;
33184;SDS011;19550;42.872;25.494;2023-05-07T10:33:27;7.72;;;3.55;;
33184;SDS011;19550;42.872;25.494;2023-05-07T10:35:57;9.93;;;4.05;;
33184;SDS011;19550;42.872;25.494;2023-05-07T10:38:27;7.75;;;2.95;;
33184;SDS011;19550;42.872;25.494;2023-05-07T10:40:54;11.02;;;3.65;;
33184;SDS011;19550;42.872;25.494;2023-05-07T10:43:21;5.05;;;2.90;;
33184;SDS011;19550;42.872;25.494;2023-05-07T10:51:34;3.08;;;2.60;;
33184;SDS011;19550;42.872;25.494;2023-05-07T10:56:48;8.57;;;3.00;;
33184;SDS011;19550;42.872;25.494;2023-05-07T10:59:34;103.07;;;8.45;;
33184;SDS011;19550;42.872;25.494;2023-05-07T11:02:08;31.00;;;3.97;;
33184;SDS011;19550;42.872;25.494;2023-05-07T11:04:36;6.65;;;3.35;;
33184;SDS011;19550;42.872;25.494;2023-05-07T11:09:54;5.47;;;3.53;;
33184;SDS011;19550;42.872;25.494;2023-05-07T11:15:38;4.07;;;2.90;;
33184;SDS011;19550;42.872;25.494;2023-05-07T11:18:11;5.30;;;4.00;;
33184;SDS011;19550;42.872;25.494;2023-05-07T11:20:46;5.65;;;3.80;;
33184;SDS011;19550;42.872;25.494;2023-05-07T11:26:22;3.60;;;2.22;;
33184;SDS011;19550;42.872;25.494;2023-05-07T11:28:49;5.57;;;2.83;;
33184;SDS011;19550;42.872;25.494;2023-05-07T11:31:17;7.60;;;3.33;;
33184;SDS011;19550;42.872;25.494;2023-05-07T11:33:49;6.50;;;3.03;;
33184;SDS011;19550;42.872;25.494;2023-05-07T11:36:16;6.82;;;3.05;;
33184;SDS011;19550;42.872;25.494;2023-05-07T11:38:45;8.43;;;2.83;;
33184;SDS011;19550;42.872;25.494;2023-05-07T11:41:12;5.55;;;2.65;;
33184;SDS011;19550;42.872;25.494;2023-05-07T11:43:53;10.38;;;3.53;;
33184;SDS011;19550;42.872;25.494;2023-05-07T11:46:21;5.75;;;2.72;;
33184;SDS011;19550;42.872;25.494;2023-05-07T11:48:47;7.10;;;2.38;;
33184;SDS011;19550;42.872;25.494;2023-05-07T11:51:18;5.70;;;2.67;;
33184;SDS011;19550;42.872;25.494;2023-05-07T11:53:46;7.35;;;2.95;;
33184;SDS011;19550;42.872;25.494;2023-05-07T11:56:14;5.10;;;2.63;;
33184;SDS011;19550;42.872;25.494;2023-05-07T11:58:42;2.83;;;2.57;;
33184;SDS011;19550;42.872;25.494;2023-05-07T12:01:11;5.45;;;2.67;;
33184;SDS011;19550;42.872;25.494;2023-05-07T12:03:40;4.28;;;2.80;;
33184;SDS011;19550;42.872;25.494;2023-05-07T12:06:11;5.43;;;2.92;;
33184;SDS011;19550;42.872;25.494;2023-05-07T12:08:39;7.13;;;2.90;;
33184;SDS011;19550;42.872;25.494;2023-05-07T12:11:07;4.57;;;2.70;;
33184;SDS011;19550;42.872;25.494;2023-05-07T12:13:36;6.80;;;2.85;;
33184;SDS011;19550;42.872;25.494;2023-05-07T12:16:03;3.40;;;2.30;;
33184;SDS011;19550;42.872;25.494;2023-05-07T12:18:32;4.15;;;2.78;;
33184;SDS011;19550;42.872;25.494;2023-05-07T12:21:00;3.20;;;2.42;;
33184;SDS011;19550;42.872;25.494;2023-05-07T12:23:28;6.50;;;2.90;;
33184;SDS011;19550;42.872;25.494;2023-05-07T12:25:56;2.88;;;2.17;;
33184;SDS011;19550;42.872;25.494;2023-05-07T12:28:23;5.65;;;2.58;;
33184;SDS011;19550;42.872;25.494;2023-05-07T12:30:50;6.32;;;2.63;;
33184;SDS011;19550;42.872;25.494;2023-05-07T12:33:17;5.22;;;2.40;;
33184;SDS011;19550;42.872;25.494;2023-05-07T12:35:46;7.43;;;2.72;;
33184;SDS011;19550;42.872;25.494;2023-05-07T12:38:15;3.85;;;2.38;;
33184;SDS011;19550;42.872;25.494;2023-05-07T12:40:45;2.70;;;2.15;;
33184;SDS011;19550;42.872;25.494;2023-05-07T12:43:16;5.15;;;2.42;;
33184;SDS011;19550;42.872;25.494;2023-05-07T12:45:43;6.40;;;2.65;;
33184;SDS011;19550;42.872;25.494;2023-05-07T12:48:11;5.05;;;2.30;;
33184;SDS011;19550;42.872;25.494;2023-05-07T12:50:38;5.35;;;2.60;;
33184;SDS011;19550;42.872;25.494;2023-05-07T12:53:05;3.88;;;2.20;;
33184;SDS011;19550;42.872;25.494;2023-05-07T12:55:40;2.67;;;2.22;;
33184;SDS011;19550;42.872;25.494;2023-05-07T12:58:09;5.05;;;2.50;;
33184;SDS011;19550;42.872;25.494;2023-05-07T13:00:42;5.65;;;2.35;;
33184;SDS011;19550;42.872;25.494;2023-05-07T13:03:09;3.25;;;2.25;;
33184;SDS011;19550;42.872;25.494;2023-05-07T13:05:36;3.33;;;2.45;;
33184;SDS011;19550;42.872;25.494;2023-05-07T13:08:03;7.43;;;2.58;;
33184;SDS011;19550;42.872;25.494;2023-05-07T13:10:30;10.95;;;2.72;;
33184;SDS011;19550;42.872;25.494;2023-05-07T13:12:57;6.88;;;2.42;;
33184;SDS011;19550;42.872;25.494;2023-05-07T13:15:26;5.43;;;2.28;;
33184;SDS011;19550;42.872;25.494;2023-05-07T13:17:53;4.90;;;4.22;;
33184;SDS011;19550;42.872;25.494;2023-05-07T13:20:20;4.13;;;2.30;;
33184;SDS011;19550;42.872;25.494;2023-05-07T13:22:47;3.58;;;2.72;;
33184;SDS011;19550;42.872;25.494;2023-05-07T13:25:13;7.65;;;3.83;;
33184;SDS011;19550;42.872;25.494;2023-05-07T13:27:40;8.65;;;5.82;;
33184;SDS011;19550;42.872;25.494;2023-05-07T13:30:07;3.08;;;2.42;;
33184;SDS011;19550;42.872;25.494;2023-05-07T13:32:36;8.18;;;2.53;;
33184;SDS011;19550;42.872;25.494;2023-05-07T13:35:02;4.68;;;2.40;;
33184;SDS011;19550;42.872;25.494;2023-05-07T13:37:30;3.17;;;2.30;;
33184;SDS011;19550;42.872;25.494;2023-05-07T13:39:56;4.05;;;2.03;;
33184;SDS011;19550;42.872;25.494;2023-05-07T13:42:23;5.18;;;2.30;;
33184;SDS011;19550;42.872;25.494;2023-05-07T13:44:50;3.30;;;2.30;;
33184;SDS011;19550;42.872;25.494;2023-05-07T13:47:17;7.88;;;2.10;;
33184;SDS011;19550;42.872;25.494;2023-05-07T13:49:45;10.15;;;2.88;;
33184;SDS011;19550;42.872;25.494;2023-05-07T13:52:14;4.13;;;2.05;;
33184;SDS011;19550;42.872;25.494;2023-05-07T13:54:41;6.68;;;4.38;;
33184;SDS011;19550;42.872;25.494;2023-05-07T13:57:08;6.18;;;2.60;;
33184;SDS011;19550;42.872;25.494;2023-05-07T13:59:35;5.53;;;3.10;;
33184;SDS011;19550;42.872;25.494;2023-05-07T14:02:01;4.20;;;2.67;;
33184;SDS011;19550;42.872;25.494;2023-05-07T14:04:30;6.60;;;2.45;;
33184;SDS011;19550;42.872;25.494;2023-05-07T14:06:58;4.72;;;2.53;;
33184;SDS011;19550;42.872;25.494;2023-05-07T14:09:25;5.28;;;2.50;;
33184;SDS011;19550;42.872;25.494;2023-05-07T14:11:52;4.05;;;2.60;;
33184;SDS011;19550;42.872;25.494;2023-05-07T14:14:18;2.90;;;2.30;;
33184;SDS011;19550;42.872;25.494;2023-05-07T14:16:45;4.57;;;2.95;;
33184;SDS011;19550;42.872;25.494;2023-05-07T14:19:12;4.07;;;2.20;;
33184;SDS011;19550;42.872;25.494;2023-05-07T14:21:39;3.13;;;2.40;;
33184;SDS011;19550;42.872;25.494;2023-05-07T14:24:07;3.40;;;2.00;;
33184;SDS011;19550;42.872;25.494;2023-05-07T14:26:34;4.25;;;2.40;;
33184;SDS011;19550;42.872;25.494;2023-05-07T14:29:01;7.63;;;2.55;;
33184;SDS011;19550;42.872;25.494;2023-05-07T14:31:28;6.22;;;2.60;;
33184;SDS011;19550;42.872;25.494;2023-05-07T14:33:55;3.97;;;2.70;;
33184;SDS011;19550;42.872;25.494;2023-05-07T14:36:24;3.10;;;2.28;;
33184;SDS011;19550;42.872;25.494;2023-05-07T14:38:51;2.60;;;2.22;;
33184;SDS011;19550;42.872;25.494;2023-05-07T14:41:20;3.92;;;2.35;;
33184;SDS011;19550;42.872;25.494;2023-05-07T14:43:48;6.20;;;2.42;;
33184;SDS011;19550;42.872;25.494;2023-05-07T14:46:16;5.05;;;2.17;;
33184;SDS011;19550;42.872;25.494;2023-05-07T14:48:43;4.15;;;2.28;;
33184;SDS011;19550;42.872;25.494;2023-05-07T14:51:10;4.90;;;2.83;;
33184;SDS011;19550;42.872;25.494;2023-05-07T14:53:37;5.05;;;2.80;;
33184;SDS011;19550;42.872;25.494;2023-05-07T14:56:04;4.18;;;2.45;;